Time;durP1;ratioP1;P1;durP2;ratioP2;P2;SDS_P1;SDS_P2;PMS_P1;PMS_P2;Temp;Humidity;BMP_temperature;BMP_pressure;BME280_temperature;BME280_humidity;BME280_pressure;Samples;Min_cycle;Max_cycle;Signal;HPM_P1;HPM_P2
2022/10/20 00:00:41;;;;;;;;;;;8.70;99.90;;;;;;5046451;28;19909;-75
2022/10/20 00:03:07;;;;;;;;;;;8.60;99.90;;;;;;5064126;28;19916;-74
2022/10/20 00:05:32;;;;;;;;;;;8.60;99.90;;;;;;5064175;28;19917;-75
2022/10/20 00:07:58;;;;;;;;;;;8.60;99.90;;;;;;5045308;28;19912;-75
2022/10/20 00:10:24;;;;;;;;;;;8.60;99.90;;;;;;5046301;28;19908;-74
2022/10/20 00:12:49;;;;;;;;;;;8.50;99.90;;;;;;5064086;28;19913;-75
2022/10/20 00:15:15;;;;;;;;;;;8.50;99.90;;;;;;5064788;28;20241;-74
2022/10/20 00:17:43;;;;;;;;;;;8.50;99.90;;;;;;5063080;28;19950;-74
2022/10/20 00:20:09;;;;;;;;;;;8.50;99.90;;;;;;5064239;28;20364;-76
2022/10/20 00:22:35;;;;;;;;;;;8.50;99.90;;;;;;5064692;28;19908;-76
2022/10/20 00:25:00;;;;;;;;;;;8.50;99.90;;;;;;5065497;28;19935;-76
2022/10/20 00:27:26;;;;;;;;;;;8.40;99.90;;;;;;5048557;28;19913;-76
2022/10/20 00:29:52;;;;;;;;;;;8.40;99.90;;;;;;5048806;28;19909;-76
2022/10/20 00:32:17;;;;;;;;;;;8.40;99.90;;;;;;5065990;28;19963;-76
2022/10/20 00:34:43;;;;;;;;;;;8.40;99.90;;;;;;5066025;28;19917;-76
2022/10/20 00:37:09;;;;;;;;;;;8.40;99.90;;;;;;5065238;28;19916;-75
2022/10/20 00:39:34;;;;;;;;;;;8.40;99.90;;;;;;5060871;28;19917;-74
2022/10/20 00:42:03;;;;;;;;;;;8.40;99.90;;;;;;5062813;28;19952;-74
2022/10/20 00:44:52;;;;;;;;;;;8.40;99.90;;;;;;5062642;28;19931;-75
2022/10/20 00:47:33;;;;;;;;;;;8.40;99.90;;;;;;5042947;28;19923;-74
2022/10/20 00:50:06;;;;;;;;;;;8.40;99.90;;;;;;5043275;28;19923;-74
2022/10/20 00:52:31;;;;;;;;;;;8.40;99.90;;;;;;5042672;28;19909;-74
2022/10/20 00:54:58;;;;;;;;;;;8.40;99.90;;;;;;5026343;28;19909;-74
2022/10/20 00:57:24;;;;;;;;;;;8.40;99.90;;;;;;5042247;28;20140;-73
2022/10/20 00:59:50;;;;;;;;;;;8.40;99.90;;;;;;5042927;28;19909;-74
2022/10/20 01:02:15;;;;;;;;;;;8.40;99.90;;;;;;5043802;28;19909;-73
2022/10/20 01:04:44;;;;;;;;;;;8.40;99.90;;;;;;5026132;28;19915;-74
2022/10/20 01:07:09;;;;;;;;;;;8.40;99.90;;;;;;5049885;28;19913;-73
2022/10/20 01:09:37;;;;;;;;;;;8.40;99.90;;;;;;5046471;28;20199;-74
2022/10/20 01:12:18;;;;;;;;;;;8.40;99.90;;;;;;5063968;28;19923;-75
2022/10/20 01:15:08;;;;;;;;;;;8.40;99.90;;;;;;5046805;28;19917;-75
2022/10/20 01:17:39;;;;;;;;;;;8.40;99.90;;;;;;5063829;28;19955;-74
2022/10/20 01:20:36;;;;;;;;;;;8.40;99.90;;;;;;5046265;28;19915;-74
2022/10/20 01:23:17;;;;;;;;;;;8.30;99.90;;;;;;5046135;28;19908;-74
2022/10/20 01:26:20;;;;;;;;;;;8.40;99.90;;;;;;5063769;28;19917;-75
2022/10/20 01:28:58;;;;;;;;;;;8.30;99.90;;;;;;5063467;28;20204;-74
2022/10/20 01:31:48;;;;;;;;;;;8.30;99.90;;;;;;5063695;28;19931;-74
2022/10/20 01:34:34;;;;;;;;;;;8.30;99.90;;;;;;5063591;28;19909;-74
2022/10/20 01:37:22;;;;;;;;;;;8.30;99.90;;;;;;5086528;22;19972;-69
2022/10/20 01:40:01;;;;;;;;;;;8.30;99.90;;;;;;5076294;28;19921;-69
2022/10/20 01:42:28;;;;;;;;;;;8.30;99.90;;;;;;5064660;28;20335;-69
2022/10/20 01:44:55;;;;;;;;;;;8.30;99.90;;;;;;5082410;28;19912;-69
2022/10/20 01:47:21;;;;;;;;;;;8.30;99.90;;;;;;5064236;28;19913;-69
2022/10/20 01:49:47;;;;;;;;;;;8.20;99.90;;;;;;5080997;28;19909;-69
2022/10/20 01:52:13;;;;;;;;;;;8.20;99.90;;;;;;5081795;28;20235;-69
2022/10/20 01:54:38;;;;;;;;;;;8.10;99.90;;;;;;5086487;28;19908;-69
2022/10/20 01:57:29;;;;;;;;;;;8.10;99.90;;;;;;5086057;28;19974;-69
2022/10/20 02:00:05;;;;;;;;;;;8.10;99.90;;;;;;5085362;28;20142;-69
2022/10/20 02:02:41;;;;;;;;;;;8.10;99.90;;;;;;5085167;28;19909;-69
2022/10/20 02:05:44;;;;;;;;;;;8.10;99.90;;;;;;5086195;28;20263;-69
2022/10/20 02:08:30;;;;;;;;;;;8.10;99.90;;;;;;5085521;28;19962;-69
2022/10/20 02:10:57;;;;;;;;;;;8.10;99.90;;;;;;5086121;28;19936;-66
2022/10/20 02:13:23;;;;;;;;;;;8.00;99.90;;;;;;5084865;28;19987;-69
2022/10/20 02:15:53;;;;;;;;;;;8.00;99.90;;;;;;5084886;28;20146;-69
2022/10/20 02:18:27;;;;;;;;;;;8.00;99.90;;;;;;5084584;28;19923;-69
2022/10/20 02:20:53;;;;;;;;;;;8.00;99.90;;;;;;5084862;28;19940;-69
2022/10/20 02:23:19;;;;;;;;;;;8.00;99.90;;;;;;5084490;28;20222;-69
2022/10/20 02:25:46;;;;;;;;;;;8.00;99.90;;;;;;5085676;28;19912;-69
2022/10/20 02:28:12;;;;;;;;;;;8.00;99.90;;;;;;5085445;28;20158;-69
2022/10/20 02:30:38;;;;;;;;;;;8.00;99.90;;;;;;5084539;28;19987;-69
2022/10/20 02:33:03;;;;;;;;;;;8.00;99.90;;;;;;5067770;28;19912;-69
2022/10/20 02:35:30;;;;;;;;;;;7.90;99.90;;;;;;5085639;28;19909;-69
2022/10/20 02:37:56;;;;;;;;;;;7.90;99.90;;;;;;5084900;28;19913;-69
2022/10/20 02:40:22;;;;;;;;;;;7.90;99.90;;;;;;5085485;28;20318;-69
2022/10/20 02:42:47;;;;;;;;;;;8.00;99.90;;;;;;5085529;28;19916;-69
2022/10/20 02:45:13;;;;;;;;;;;7.90;99.90;;;;;;5085360;28;19959;-69
2022/10/20 02:47:39;;;;;;;;;;;7.90;99.90;;;;;;5084978;28;19909;-69
2022/10/20 02:50:05;;;;;;;;;;;8.00;99.90;;;;;;5085530;28;19931;-69
2022/10/20 02:52:31;;;;;;;;;;;7.90;99.90;;;;;;5085309;28;19916;-69
2022/10/20 02:54:56;;;;;;;;;;;7.90;99.90;;;;;;5085250;28;19909;-69
2022/10/20 02:57:22;;;;;;;;;;;8.00;99.90;;;;;;5085010;28;19922;-69
2022/10/20 02:59:48;;;;;;;;;;;7.90;99.90;;;;;;5085209;28;19923;-69
2022/10/20 03:02:13;;;;;;;;;;;7.90;99.90;;;;;;5085090;28;19917;-69
2022/10/20 03:04:39;;;;;;;;;;;7.80;99.90;;;;;;5084132;28;20119;-69
2022/10/20 03:07:04;;;;;;;;;;;7.80;99.90;;;;;;5084943;28;20142;-69
2022/10/20 03:09:30;;;;;;;;;;;7.80;99.90;;;;;;5084840;28;19971;-68
2022/10/20 03:11:56;;;;;;;;;;;7.80;99.90;;;;;;5084889;28;20149;-69
2022/10/20 03:14:21;;;;;;;;;;;7.70;99.90;;;;;;5084889;28;19912;-69
2022/10/20 03:16:47;;;;;;;;;;;7.80;99.90;;;;;;5084404;28;19908;-69
2022/10/20 03:19:13;;;;;;;;;;;7.70;99.90;;;;;;5084828;28;19916;-69
2022/10/20 03:21:38;;;;;;;;;;;7.70;99.90;;;;;;5084735;28;19915;-69
2022/10/20 03:24:04;;;;;;;;;;;7.60;99.90;;;;;;5084504;28;19908;-69
2022/10/20 03:26:30;;;;;;;;;;;7.60;99.90;;;;;;5084431;28;19947;-69
2022/10/20 03:28:55;;;;;;;;;;;7.60;99.90;;;;;;5084740;28;19909;-69
2022/10/20 03:31:21;;;;;;;;;;;7.60;99.90;;;;;;5084469;28;19932;-69
2022/10/20 03:33:47;;;;;;;;;;;7.60;99.90;;;;;;5084654;28;19982;-69
2022/10/20 03:36:12;;;;;;;;;;;7.60;99.90;;;;;;5084267;28;19912;-69
2022/10/20 03:38:40;;;;;;;;;;;7.60;99.90;;;;;;5084123;28;20207;-69
2022/10/20 03:41:06;;;;;;;;;;;7.60;99.90;;;;;;5084422;28;20204;-69
2022/10/20 03:43:32;;;;;;;;;;;7.60;99.90;;;;;;5084296;28;19916;-69
2022/10/20 03:46:04;;;;;;;;;;;7.60;99.90;;;;;;5084040;28;20325;-69
2022/10/20 03:48:30;;;;;;;;;;;7.50;99.90;;;;;;5084196;28;19915;-69
2022/10/20 03:50:55;;;;;;;;;;;7.60;99.90;;;;;;5084199;28;19948;-69
2022/10/20 03:53:21;;;;;;;;;;;7.50;99.90;;;;;;5083883;28;19909;-70
2022/10/20 03:55:47;;;;;;;;;;;7.50;99.90;;;;;;5084114;28;19908;-69
2022/10/20 03:58:12;;;;;;;;;;;7.50;99.90;;;;;;5083718;28;19995;-69
2022/10/20 04:00:38;;;;;;;;;;;7.50;99.90;;;;;;5083979;28;19916;-69
2022/10/20 04:03:04;;;;;;;;;;;7.50;99.90;;;;;;5082844;28;19970;-69
2022/10/20 04:05:29;;;;;;;;;;;7.50;99.90;;;;;;5083806;28;19935;-69
2022/10/20 04:07:55;;;;;;;;;;;7.50;99.90;;;;;;5083099;28;19916;-69
2022/10/20 04:10:21;;;;;;;;;;;7.50;99.90;;;;;;5082735;28;19915;-69
2022/10/20 04:12:46;;;;;;;;;;;7.40;99.90;;;;;;5083798;28;19908;-69
2022/10/20 04:15:12;;;;;;;;;;;7.40;99.90;;;;;;5083539;28;19916;-69
2022/10/20 04:17:38;;;;;;;;;;;7.40;99.90;;;;;;5079588;28;19996;-69
2022/10/20 04:20:05;;;;;;;;;;;7.40;99.90;;;;;;5083327;28;19952;-69
2022/10/20 04:22:30;;;;;;;;;;;7.40;99.90;;;;;;5073786;28;20219;-69
2022/10/20 04:24:56;;;;;;;;;;;7.40;99.90;;;;;;5080550;28;19913;-69
2022/10/20 04:27:22;;;;;;;;;;;7.40;99.90;;;;;;5076794;28;19919;-69
2022/10/20 04:29:47;;;;;;;;;;;7.30;99.90;;;;;;5079125;28;19955;-69
2022/10/20 04:32:13;;;;;;;;;;;7.30;99.90;;;;;;5083170;28;19917;-69
2022/10/20 04:34:39;;;;;;;;;;;7.30;99.90;;;;;;5088327;28;19984;-70
2022/10/20 04:37:04;;;;;;;;;;;7.30;99.90;;;;;;5091450;28;20208;-70
2022/10/20 04:39:30;;;;;;;;;;;7.30;99.90;;;;;;5093540;28;20253;-70
2022/10/20 04:41:56;;;;;;;;;;;7.30;99.90;;;;;;5086597;28;20142;-70
2022/10/20 04:44:21;;;;;;;;;;;7.30;99.90;;;;;;5087810;28;19947;-70
2022/10/20 04:46:47;;;;;;;;;;;7.20;99.90;;;;;;5096249;28;19962;-70
2022/10/20 04:49:13;;;;;;;;;;;7.20;99.90;;;;;;5099828;28;20054;-69
2022/10/20 04:51:38;;;;;;;;;;;7.10;99.90;;;;;;5100227;28;20207;-69
2022/10/20 04:54:04;;;;;;;;;;;7.00;99.90;;;;;;5097051;28;19912;-69
2022/10/20 04:56:30;;;;;;;;;;;7.00;99.90;;;;;;5083257;28;19999;-69
2022/10/20 04:58:56;;;;;;;;;;;7.00;99.90;;;;;;5101217;28;19919;-69
2022/10/20 05:01:25;;;;;;;;;;;7.00;99.90;;;;;;5089601;28;20422;-69
2022/10/20 05:03:51;;;;;;;;;;;7.00;99.90;;;;;;5097331;28;19926;-69
2022/10/20 05:06:18;;;;;;;;;;;7.00;99.90;;;;;;5086096;28;19920;-69
2022/10/20 05:08:45;;;;;;;;;;;7.00;99.90;;;;;;5087829;28;20049;-69
2022/10/20 05:11:12;;;;;;;;;;;7.00;99.90;;;;;;5088015;28;19920;-69
2022/10/20 05:13:37;;;;;;;;;;;7.00;99.90;;;;;;5094022;28;19916;-69
2022/10/20 05:16:03;;;;;;;;;;;7.00;99.90;;;;;;5092753;28;20211;-69
2022/10/20 05:18:29;;;;;;;;;;;7.10;99.90;;;;;;5092493;28;19916;-69
2022/10/20 05:20:55;;;;;;;;;;;7.10;99.90;;;;;;5091965;28;19918;-69
2022/10/20 05:23:20;;;;;;;;;;;7.10;99.90;;;;;;5102600;28;19979;-69
2022/10/20 05:25:46;;;;;;;;;;;7.10;99.90;;;;;;5098506;28;19916;-69
2022/10/20 05:28:12;;;;;;;;;;;7.10;99.90;;;;;;5089695;28;19908;-69
2022/10/20 05:30:37;;;;;;;;;;;7.20;99.90;;;;;;5082397;28;20219;-69
2022/10/20 05:33:03;;;;;;;;;;;7.20;99.90;;;;;;5082467;28;19916;-69
2022/10/20 05:35:29;;;;;;;;;;;7.20;99.90;;;;;;5082418;28;19908;-69
2022/10/20 05:37:55;;;;;;;;;;;7.20;99.90;;;;;;5081891;28;19912;-69
2022/10/20 05:40:21;;;;;;;;;;;7.20;99.90;;;;;;5081229;28;20167;-70
2022/10/20 05:42:46;;;;;;;;;;;7.30;99.90;;;;;;5072709;28;19950;-70
2022/10/20 05:45:12;;;;;;;;;;;7.40;99.90;;;;;;5075748;28;20207;-70
2022/10/20 05:47:38;;;;;;;;;;;7.40;99.90;;;;;;5073489;28;19928;-70
2022/10/20 05:50:03;;;;;;;;;;;7.40;99.90;;;;;;5081651;28;19948;-70
2022/10/20 05:52:29;;;;;;;;;;;7.40;99.90;;;;;;5080908;28;19908;-70
2022/10/20 05:54:55;;;;;;;;;;;7.40;99.90;;;;;;5081671;28;20080;-70
2022/10/20 05:57:20;;;;;;;;;;;7.40;99.90;;;;;;5081600;28;20110;-70
2022/10/20 05:59:46;;;;;;;;;;;7.40;99.90;;;;;;5082115;28;19909;-71
2022/10/20 06:02:12;;;;;;;;;;;7.40;99.90;;;;;;5082154;28;19916;-70
2022/10/20 06:04:38;;;;;;;;;;;7.40;99.90;;;;;;5082070;28;19917;-70
2022/10/20 06:07:08;;;;;;;;;;;7.40;99.90;;;;;;5081721;28;19908;-70
2022/10/20 06:09:35;;;;;;;;;;;7.40;99.90;;;;;;5082010;28;19915;-70
2022/10/20 06:12:00;;;;;;;;;;;7.40;99.90;;;;;;5081994;28;20327;-71
2022/10/20 06:14:26;;;;;;;;;;;7.40;99.90;;;;;;5082127;28;19915;-70
2022/10/20 06:16:52;;;;;;;;;;;7.40;99.90;;;;;;5081779;28;20223;-70
2022/10/20 06:19:18;;;;;;;;;;;7.40;99.90;;;;;;5082244;28;19952;-69
2022/10/20 06:21:43;;;;;;;;;;;7.40;99.90;;;;;;5082229;28;20138;-70
2022/10/20 06:24:09;;;;;;;;;;;7.40;99.90;;;;;;5082513;28;20106;-70
2022/10/20 06:26:35;;;;;;;;;;;7.40;99.90;;;;;;5080564;28;19920;-70
2022/10/20 06:29:01;;;;;;;;;;;7.40;99.90;;;;;;5081912;28;20014;-70
2022/10/20 06:31:37;;;;;;;;;;;7.40;99.90;;;;;;5081883;28;19915;-70
2022/10/20 06:34:04;;;;;;;;;;;7.50;99.90;;;;;;5082007;28;20097;-70
2022/10/20 06:36:30;;;;;;;;;;;7.50;99.90;;;;;;5080450;28;20092;-70
2022/10/20 06:38:57;;;;;;;;;;;7.50;99.90;;;;;;5063888;28;20001;-71
2022/10/20 06:41:23;;;;;;;;;;;7.50;99.90;;;;;;5085768;28;20171;-70
2022/10/20 06:43:48;;;;;;;;;;;7.60;99.90;;;;;;5085418;28;19916;-70
2022/10/20 06:46:16;;;;;;;;;;;7.60;99.90;;;;;;5085149;28;19913;-70
2022/10/20 06:48:42;;;;;;;;;;;7.60;99.90;;;;;;5085396;28;20209;-70
2022/10/20 06:51:15;;;;;;;;;;;7.70;99.90;;;;;;5085334;28;19921;-71
2022/10/20 06:53:42;;;;;;;;;;;7.70;99.90;;;;;;5083906;28;19955;-70
2022/10/20 06:56:10;;;;;;;;;;;7.70;99.90;;;;;;5084988;28;19909;-71
2022/10/20 06:58:36;;;;;;;;;;;7.80;99.90;;;;;;5083994;28;19975;-71
2022/10/20 07:01:06;;;;;;;;;;;7.80;99.90;;;;;;5084056;28;20084;-71
2022/10/20 07:03:33;;;;;;;;;;;7.80;99.90;;;;;;5084044;28;19912;-71
2022/10/20 07:05:58;;;;;;;;;;;7.90;99.90;;;;;;5084740;28;19921;-71
2022/10/20 07:08:26;;;;;;;;;;;8.00;99.90;;;;;;5084531;28;19959;-70
2022/10/20 07:11:08;;;;;;;;;;;8.10;99.90;;;;;;5084826;28;19909;-70
2022/10/20 07:13:35;;;;;;;;;;;8.10;99.90;;;;;;5084800;28;19940;-70
2022/10/20 07:16:01;;;;;;;;;;;8.20;99.90;;;;;;5087473;28;19923;-70
2022/10/20 07:18:27;;;;;;;;;;;8.20;99.90;;;;;;5102124;28;19912;-70
2022/10/20 07:20:57;;;;;;;;;;;8.30;99.90;;;;;;5104966;28;19916;-70
2022/10/20 07:23:22;;;;;;;;;;;8.40;99.90;;;;;;5104693;28;20203;-70
2022/10/20 07:25:48;;;;;;;;;;;8.50;99.90;;;;;;5104759;28;19956;-71
2022/10/20 07:28:14;;;;;;;;;;;8.50;99.90;;;;;;5104580;28;19999;-70
2022/10/20 07:30:40;;;;;;;;;;;8.60;99.90;;;;;;5104820;28;19916;-70
2022/10/20 07:33:06;;;;;;;;;;;8.70;99.90;;;;;;5103516;28;19915;-70
2022/10/20 07:35:31;;;;;;;;;;;8.70;99.90;;;;;;5103767;28;19908;-70
2022/10/20 07:37:57;;;;;;;;;;;8.80;99.90;;;;;;5095657;28;19981;-70
2022/10/20 07:40:23;;;;;;;;;;;8.90;99.90;;;;;;5084176;28;19962;-70
2022/10/20 07:42:48;;;;;;;;;;;9.00;99.90;;;;;;5084380;28;19947;-70
2022/10/20 07:45:14;;;;;;;;;;;9.10;99.90;;;;;;5084268;28;19913;-70
2022/10/20 07:47:40;;;;;;;;;;;9.10;99.90;;;;;;5083768;28;19916;-70
2022/10/20 07:50:06;;;;;;;;;;;9.20;99.90;;;;;;5083911;28;19916;-70
2022/10/20 07:52:32;;;;;;;;;;;9.30;99.90;;;;;;5084328;28;19947;-70
2022/10/20 07:54:58;;;;;;;;;;;9.40;99.90;;;;;;5083845;28;19986;-70
2022/10/20 07:57:24;;;;;;;;;;;9.50;99.90;;;;;;5083784;28;19934;-70
2022/10/20 07:59:49;;;;;;;;;;;9.60;99.90;;;;;;5083954;28;19983;-70
2022/10/20 08:02:15;;;;;;;;;;;9.70;99.90;;;;;;5083897;28;19909;-70
2022/10/20 08:04:42;;;;;;;;;;;9.80;99.90;;;;;;5083805;28;19908;-70
2022/10/20 08:07:09;;;;;;;;;;;9.90;99.90;;;;;;5083478;28;20223;-71
2022/10/20 08:09:35;;;;;;;;;;;10.00;99.90;;;;;;5083528;28;19916;-70
2022/10/20 08:12:01;;;;;;;;;;;10.10;99.90;;;;;;5083802;28;20283;-70
2022/10/20 08:14:30;;;;;;;;;;;10.10;99.90;;;;;;5082628;28;19908;-70
2022/10/20 08:16:56;;;;;;;;;;;10.20;99.90;;;;;;5083192;28;20277;-70
2022/10/20 08:19:22;;;;;;;;;;;10.30;99.90;;;;;;5086330;28;19916;-70
2022/10/20 08:21:47;;;;;;;;;;;10.30;99.90;;;;;;5094419;28;19965;-70
2022/10/20 08:24:13;;;;;;;;;;;10.40;99.90;;;;;;5103549;28;19938;-70
2022/10/20 08:26:39;;;;;;;;;;;10.50;99.90;;;;;;5103561;28;19920;-71
2022/10/20 08:29:05;;;;;;;;;;;10.60;99.90;;;;;;5103904;28;19919;-71
2022/10/20 08:31:31;;;;;;;;;;;10.70;99.90;;;;;;5100465;28;20115;-71
2022/10/20 08:33:56;;;;;;;;;;;10.70;99.90;;;;;;5095158;28;20127;-70
2022/10/20 08:36:22;;;;;;;;;;;10.80;99.90;;;;;;5083385;28;19912;-70
2022/10/20 08:38:48;;;;;;;;;;;10.90;99.90;;;;;;5085231;28;19919;-70
2022/10/20 08:41:21;;;;;;;;;;;11.00;99.90;;;;;;5093203;28;19909;-70
2022/10/20 08:43:48;;;;;;;;;;;11.10;99.90;;;;;;5098201;28;19915;-70
2022/10/20 08:46:14;;;;;;;;;;;11.10;99.90;;;;;;5085033;28;20011;-70
2022/10/20 08:48:40;;;;;;;;;;;11.10;99.90;;;;;;5085361;28;19908;-70
2022/10/20 08:51:06;;;;;;;;;;;11.20;99.90;;;;;;5103404;28;20106;-70
2022/10/20 08:53:35;;;;;;;;;;;11.30;99.90;;;;;;5102934;28;19908;-70
2022/10/20 08:56:00;;;;;;;;;;;11.40;99.90;;;;;;5103045;28;19971;-71
2022/10/20 08:58:26;;;;;;;;;;;11.50;99.90;;;;;;5102966;28;19908;-70
2022/10/20 09:00:56;;;;;;;;;;;11.60;99.90;;;;;;5103244;28;20094;-70
2022/10/20 09:03:26;;;;;;;;;;;11.70;99.90;;;;;;5101294;28;19949;-70
2022/10/20 09:06:13;;;;;;;;;;;11.80;99.90;;;;;;5085621;28;19912;-71
2022/10/20 09:08:38;;;;;;;;;;;12.00;99.90;;;;;;5086647;28;20005;-70
2022/10/20 09:11:06;;;;;;;;;;;12.10;99.90;;;;;;5081461;28;19908;-70
2022/10/20 09:13:32;;;;;;;;;;;12.20;99.90;;;;;;5083903;28;20199;-70
2022/10/20 09:16:02;;;;;;;;;;;12.20;99.90;;;;;;5082672;28;19962;-70
2022/10/20 09:18:29;;;;;;;;;;;12.30;99.90;;;;;;5081700;28;19916;-71
2022/10/20 09:21:03;;;;;;;;;;;12.40;99.90;;;;;;5065013;28;20110;-70
2022/10/20 09:23:40;;;;;;;;;;;12.50;99.90;;;;;;5081216;28;19989;-71
2022/10/20 09:26:33;;;;;;;;;;;12.50;99.90;;;;;;5081195;28;19955;-71
2022/10/20 09:29:07;;;;;;;;;;;12.60;99.90;;;;;;5078751;28;19908;-70
2022/10/20 09:31:34;;;;;;;;;;;12.70;99.90;;;;;;5081521;28;19915;-71
2022/10/20 09:34:00;;;;;;;;;;;12.80;99.90;;;;;;5082423;28;20205;-70
2022/10/20 09:36:33;;;;;;;;;;;12.90;99.90;;;;;;5082236;28;19931;-71
2022/10/20 09:38:59;;;;;;;;;;;13.10;99.90;;;;;;5067160;28;20142;-71
2022/10/20 09:41:31;;;;;;;;;;;13.20;99.90;;;;;;5081324;28;19947;-71
2022/10/20 09:44:01;;;;;;;;;;;13.40;99.90;;;;;;5082468;28;19914;-71
2022/10/20 09:46:29;;;;;;;;;;;13.50;99.90;;;;;;5080877;28;19913;-71
2022/10/20 09:48:54;;;;;;;;;;;13.60;99.90;;;;;;5081248;28;19966;-70
2022/10/20 09:51:22;;;;;;;;;;;13.70;99.90;;;;;;5082273;28;19908;-70
2022/10/20 09:54:05;;;;;;;;;;;13.80;99.90;;;;;;5080947;28;19916;-70
2022/10/20 09:56:33;;;;;;;;;;;13.90;99.90;;;;;;5080974;28;19916;-70
2022/10/20 09:59:00;;;;;;;;;;;14.00;99.90;;;;;;5080973;28;19978;-68
2022/10/20 10:01:25;;;;;;;;;;;14.10;99.90;;;;;;5081125;28;19908;-70
2022/10/20 10:03:54;;;;;;;;;;;14.30;99.90;;;;;;5082483;28;19974;-70
2022/10/20 10:06:42;;;;;;;;;;;14.40;99.90;;;;;;5081643;28;19955;-70
2022/10/20 10:09:26;;;;;;;;;;;14.70;99.90;;;;;;5081497;28;19938;-71
2022/10/20 10:12:12;;;;;;;;;;;14.90;99.90;;;;;;5082168;28;19927;-70
2022/10/20 10:14:38;;;;;;;;;;;15.20;99.90;;;;;;5084958;28;19908;-70
2022/10/20 10:17:03;;;;;;;;;;;15.40;99.90;;;;;;5084481;28;19954;-70
2022/10/20 10:19:31;;;;;;;;;;;15.70;99.00;;;;;;5084885;28;19940;-68
2022/10/20 10:21:58;;;;;;;;;;;15.90;94.30;;;;;;5084643;28;19970;-70
2022/10/20 10:24:42;;;;;;;;;;;16.10;96.00;;;;;;5084735;28;20092;-70
2022/10/20 10:27:37;;;;;;;;;;;16.30;85.20;;;;;;5084478;28;19927;-70
2022/10/20 10:30:15;;;;;;;;;;;16.40;83.70;;;;;;5080299;28;19937;-70
2022/10/20 10:32:45;;;;;;;;;;;16.60;91.60;;;;;;5085906;28;19914;-71
2022/10/20 10:35:29;;;;;;;;;;;16.80;92.50;;;;;;5085596;28;19916;-70
2022/10/20 10:37:55;;;;;;;;;;;17.00;88.30;;;;;;5084997;28;20127;-70
2022/10/20 10:40:28;;;;;;;;;;;17.30;79.90;;;;;;5085218;28;19915;-68
2022/10/20 10:42:59;;;;;;;;;;;17.40;72.60;;;;;;5084349;28;19920;-68
2022/10/20 10:45:40;;;;;;;;;;;17.50;57.20;;;;;;5085405;28;20127;-67
2022/10/20 10:48:08;;;;;;;;;;;17.50;67.30;;;;;;5085138;28;19923;-69
2022/10/20 10:50:56;;;;;;;;;;;17.50;68.40;;;;;;5085371;28;20100;-68
2022/10/20 10:53:58;;;;;;;;;;;17.40;63.20;;;;;;5084393;28;19909;-68
2022/10/20 10:56:47;;;;;;;;;;;17.20;69.90;;;;;;5063607;28;19924;-69
2022/10/20 10:59:21;;;;;;;;;;;17.20;66.60;;;;;;5087992;28;20186;-69
2022/10/20 11:02:22;;;;;;;;;;;17.10;70.30;;;;;;5083980;28;19909;-69
2022/10/20 11:05:07;;;;;;;;;;;17.10;74.40;;;;;;5084057;28;19916;-69
2022/10/20 11:07:47;;;;;;;;;;;17.30;69.20;;;;;;5084746;28;20142;-69
2022/10/20 11:10:32;;;;;;;;;;;17.50;50.00;;;;;;5083609;28;19983;-69
2022/10/20 11:13:08;;;;;;;;;;;17.70;46.40;;;;;;5084981;28;19916;-69
2022/10/20 11:15:53;;;;;;;;;;;17.90;49.90;;;;;;5083865;28;19908;-69
2022/10/20 11:18:34;;;;;;;;;;;18.00;39.10;;;;;;5084493;28;19916;-69
2022/10/20 11:21:08;;;;;;;;;;;18.00;42.50;;;;;;5084834;28;20182;-69
2022/10/20 11:23:52;;;;;;;;;;;17.90;51.50;;;;;;5082663;28;19908;-69
2022/10/20 11:26:27;;;;;;;;;;;17.90;41.60;;;;;;5083393;28;20230;-69
2022/10/20 11:28:54;;;;;;;;;;;17.80;49.60;;;;;;5083288;28;19932;-69
2022/10/20 11:31:40;;;;;;;;;;;17.90;49.40;;;;;;5083361;28;19908;-69
2022/10/20 11:34:11;;;;;;;;;;;18.00;44.50;;;;;;5083410;28;19908;-69
2022/10/20 11:36:42;;;;;;;;;;;18.10;53.30;;;;;;5084181;28;19966;-69
2022/10/20 11:39:24;;;;;;;;;;;18.20;42.10;;;;;;5082674;28;19929;-69
2022/10/20 11:41:51;;;;;;;;;;;18.40;28.40;;;;;;5083348;28;19974;-69
2022/10/20 11:44:20;;;;;;;;;;;18.40;32.90;;;;;;5083250;28;19916;-69
2022/10/20 11:46:51;;;;;;;;;;;18.40;26.30;;;;;;5082804;28;20018;-69
2022/10/20 11:49:17;;;;;;;;;;;18.40;29.90;;;;;;5082976;28;19985;-68
2022/10/20 11:51:58;;;;;;;;;;;18.40;37.30;;;;;;5083081;28;20008;-69
2022/10/20 11:54:32;;;;;;;;;;;18.60;19.00;;;;;;5083884;28;19920;-69
2022/10/20 11:57:16;;;;;;;;;;;18.90;44.60;;;;;;5082896;28;19908;-69
2022/10/20 11:59:52;;;;;;;;;;;19.20;48.80;;;;;;5082961;28;19915;-69
2022/10/20 12:02:33;;;;;;;;;;;19.70;41.40;;;;;;5083052;28;20388;-69
2022/10/20 12:05:31;;;;;;;;;;;20.10;25.50;;;;;;5082877;28;19915;-69
2022/10/20 12:08:12;;;;;;;;;;;20.30;51.00;;;;;;5082422;28;19909;-69
2022/10/20 12:10:48;;;;;;;;;;;20.40;33.20;;;;;;5063598;28;20276;-69
2022/10/20 12:13:46;;;;;;;;;;;20.60;49.50;;;;;;5062763;28;19909;-69
2022/10/20 12:16:12;;;;;;;;;;;20.40;75.00;;;;;;5051446;28;19908;-69
2022/10/20 12:18:37;;;;;;;;;;;20.20;67.30;;;;;;5045786;28;20035;-69
2022/10/20 12:21:04;;;;;;;;;;;20.50;64.60;;;;;;5063484;28;19924;-69
2022/10/20 12:23:41;;;;;;;;;;;21.30;62.00;;;;;;5063612;28;19988;-69
2022/10/20 12:26:29;;;;;;;;;;;22.20;43.70;;;;;;5061675;28;19912;-69
2022/10/20 12:28:58;;;;;;;;;;;22.30;38.10;;;;;;5063407;28;19913;-69
2022/10/20 12:31:27;;;;;;;;;;;22.00;36.00;;;;;;5063383;28;19967;-70
2022/10/20 12:33:53;;;;;;;;;;;21.50;41.40;;;;;;5063275;28;19912;-69
2022/10/20 12:36:18;;;;;;;;;;;20.90;24.40;;;;;;5062498;28;19963;-69
2022/10/20 12:38:49;;;;;;;;;;;20.40;10.70;;;;;;5068454;28;19912;-69
2022/10/20 12:41:32;;;;;;;;;;;19.90;24.90;;;;;;5081584;28;19908;-69
2022/10/20 12:44:05;;;;;;;;;;;19.50;28.80;;;;;;5065293;28;20190;-69
2022/10/20 12:46:33;;;;;;;;;;;19.20;27.90;;;;;;5081453;28;19933;-69
2022/10/20 12:49:02;;;;;;;;;;;19.10;25.90;;;;;;5081886;28;20233;-69
2022/10/20 12:51:49;;;;;;;;;;;18.80;40.50;;;;;;5081865;28;19908;-69
2022/10/20 12:54:35;;;;;;;;;;;18.70;48.10;;;;;;5082881;28;19913;-68
2022/10/20 12:57:03;;;;;;;;;;;18.80;43.40;;;;;;5081454;28;19908;-69
2022/10/20 12:59:29;;;;;;;;;;;18.90;39.60;;;;;;5081852;28;20190;-69
2022/10/20 13:02:10;;;;;;;;;;;18.90;40.90;;;;;;5082912;28;19922;-69
2022/10/20 13:05:01;;;;;;;;;;;18.90;48.80;;;;;;5091659;28;19919;-69
2022/10/20 13:07:45;;;;;;;;;;;18.70;48.30;;;;;;5102718;28;20233;-69
2022/10/20 13:10:26;;;;;;;;;;;18.60;35.90;;;;;;5084917;28;19908;-69
2022/10/20 13:12:52;;;;;;;;;;;18.50;41.50;;;;;;5082626;28;19966;-69
2022/10/20 13:15:19;;;;;;;;;;;18.40;52.20;;;;;;5081488;28;19916;-69
2022/10/20 13:18:10;;;;;;;;;;;18.60;49.70;;;;;;5081036;28;19915;-69
2022/10/20 13:21:00;;;;;;;;;;;18.70;40.70;;;;;;5082644;28;20159;-69
2022/10/20 13:23:38;;;;;;;;;;;18.90;41.70;;;;;;5082798;28;20136;-69
2022/10/20 13:26:25;;;;;;;;;;;19.60;52.50;;;;;;5080867;28;19983;-69
2022/10/20 13:28:52;;;;;;;;;;;20.50;31.60;;;;;;5078596;28;19912;-69
2022/10/20 13:31:21;;;;;;;;;;;20.80;11.70;;;;;;5082400;28;19909;-69
2022/10/20 13:34:05;;;;;;;;;;;20.70;6.60;;;;;;5091209;28;19944;-69
2022/10/20 13:36:31;;;;;;;;;;;20.30;13.70;;;;;;5090119;28;19940;-69
2022/10/20 13:39:20;;;;;;;;;;;19.90;14.30;;;;;;5088125;28;19919;-69
2022/10/20 13:41:52;;;;;;;;;;;19.60;20.80;;;;;;5081333;28;19908;-69
2022/10/20 13:44:27;;;;;;;;;;;19.30;39.70;;;;;;5098361;28;19912;-69
2022/10/20 13:47:01;;;;;;;;;;;19.20;37.60;;;;;;5102165;28;19937;-69
2022/10/20 13:50:04;;;;;;;;;;;19.00;39.20;;;;;;5104518;28;19915;-69
2022/10/20 13:52:32;;;;;;;;;;;19.10;48.80;;;;;;5105510;28;19908;-69
2022/10/20 13:54:58;;;;;;;;;;;19.40;53.80;;;;;;5088645;28;19962;-69
2022/10/20 13:57:32;;;;;;;;;;;19.70;51.50;;;;;;5106427;28;19908;-69
2022/10/20 14:00:00;;;;;;;;;;;19.80;39.80;;;;;;5105682;28;20219;-69
2022/10/20 14:02:31;;;;;;;;;;;19.80;55.00;;;;;;5106618;28;19908;-69
2022/10/20 14:05:12;;;;;;;;;;;19.70;46.20;;;;;;5106425;28;19922;-68
2022/10/20 14:07:39;;;;;;;;;;;19.40;52.90;;;;;;5106324;28;19912;-70
2022/10/20 14:10:06;;;;;;;;;;;19.10;58.10;;;;;;5088188;28;19908;-68
2022/10/20 14:12:31;;;;;;;;;;;18.80;67.50;;;;;;5086237;28;19916;-69
2022/10/20 14:14:57;;;;;;;;;;;18.70;70.10;;;;;;5086232;28;19915;-69
2022/10/20 14:17:23;;;;;;;;;;;18.50;70.10;;;;;;5085631;28;19983;-69
2022/10/20 14:19:49;;;;;;;;;;;18.30;76.00;;;;;;5085920;28;19908;-69
2022/10/20 14:22:22;;;;;;;;;;;18.20;77.80;;;;;;5085978;28;19909;-69
2022/10/20 14:24:50;;;;;;;;;;;18.00;83.10;;;;;;5081245;28;19925;-69
2022/10/20 14:27:21;;;;;;;;;;;17.80;99.90;;;;;;5084173;28;19912;-68
2022/10/20 14:29:46;;;;;;;;;;;17.60;99.90;;;;;;5077687;28;19913;-68
2022/10/20 14:32:22;;;;;;;;;;;17.50;99.90;;;;;;5077421;28;19978;-69
2022/10/20 14:34:59;;;;;;;;;;;17.40;99.90;;;;;;5085145;28;19920;-69
2022/10/20 14:37:38;;;;;;;;;;;17.30;99.90;;;;;;5078316;28;19916;-69
2022/10/20 14:40:06;;;;;;;;;;;17.20;99.90;;;;;;5080078;28;19940;-69
2022/10/20 14:42:32;;;;;;;;;;;17.20;99.90;;;;;;5058459;28;20208;-69